Time;durP1;ratioP1;P1;durP2;ratioP2;P2;SDS_P1;SDS_P2;PMS_P1;PMS_P2;Temp;Humidity;BMP_temperature;BMP_pressure;BME280_temperature;BME280_humidity;BME280_pressure;Samples;Min_cycle;Max_cycle;Signal;HPM_P1;HPM_P2
2021/12/09 00:00:59;;;;;;;5.40;2.20;;;;;;;;;;5022029;28;20036;-71
2021/12/09 00:03:27;;;;;;;4.45;1.88;;;;;;;;;;5018921;28;20470;-71
2021/12/09 00:05:55;;;;;;;4.20;2.45;;;;;;;;;;5026806;28;20115;-70
2021/12/09 00:08:21;;;;;;;7.68;2.75;;;;;;;;;;5021876;28;20038;-71
2021/12/09 00:10:46;;;;;;;5.85;2.30;;;;;;;;;;5027211;28;20028;-71
2021/12/09 00:13:11;;;;;;;7.18;2.15;;;;;;;;;;5028470;28;20128;-71
2021/12/09 00:15:37;;;;;;;3.95;1.95;;;;;;;;;;5022830;28;20061;-71
2021/12/09 00:18:02;;;;;;;8.05;2.05;;;;;;;;;;5022872;28;20042;-71
2021/12/09 00:20:28;;;;;;;5.35;1.90;;;;;;;;;;5024225;28;20037;-71
2021/12/09 00:22:53;;;;;;;7.22;2.25;;;;;;;;;;5028121;28;20029;-71
2021/12/09 00:25:18;;;;;;;4.35;2.20;;;;;;;;;;5025305;28;20137;-72
2021/12/09 00:27:44;;;;;;;5.90;1.80;;;;;;;;;;5026501;28;20037;-71
2021/12/09 00:30:12;;;;;;;5.93;1.85;;;;;;;;;;5025880;28;20036;-72
2021/12/09 00:32:39;;;;;;;4.20;1.80;;;;;;;;;;5026432;28;20033;-72
2021/12/09 00:35:05;;;;;;;3.05;1.83;;;;;;;;;;5009217;28;20461;-72
2021/12/09 00:37:40;;;;;;;3.78;1.63;;;;;;;;;;5028493;28;20029;-71
2021/12/09 00:40:08;;;;;;;7.47;2.15;;;;;;;;;;5027859;28;20033;-71
2021/12/09 00:42:34;;;;;;;6.15;2.97;;;;;;;;;;5021910;28;20103;-71
2021/12/09 00:44:59;;;;;;;4.93;2.28;;;;;;;;;;5027034;28;20033;-71
2021/12/09 00:47:25;;;;;;;8.10;2.65;;;;;;;;;;5027029;28;20407;-71
2021/12/09 00:49:55;;;;;;;5.10;2.25;;;;;;;;;;5023731;28;20934;-72
2021/12/09 00:52:22;;;;;;;6.20;2.22;;;;;;;;;;5007898;28;20111;-71
2021/12/09 00:54:47;;;;;;;6.80;2.63;;;;;;;;;;5025417;28;20044;-72
2021/12/09 00:57:13;;;;;;;5.82;1.70;;;;;;;;;;5027182;28;20038;-71
2021/12/09 00:59:38;;;;;;;3.72;1.88;;;;;;;;;;5023629;28;20642;-72
2021/12/09 01:02:04;;;;;;;6.47;1.60;;;;;;;;;;5007983;28;20021;-71
2021/12/09 01:04:29;;;;;;;6.43;1.65;;;;;;;;;;5025197;28;20144;-72
2021/12/09 01:06:55;;;;;;;3.58;2.13;;;;;;;;;;5025861;28;20819;-72
2021/12/09 01:09:20;;;;;;;7.70;1.90;;;;;;;;;;5025668;28;20266;-71
2021/12/09 01:11:46;;;;;;;7.75;2.53;;;;;;;;;;5039360;28;20044;-71
2021/12/09 01:14:12;;;;;;;4.93;1.75;;;;;;;;;;5024609;28;20041;-71
2021/12/09 01:16:37;;;;;;;6.38;2.13;;;;;;;;;;5023024;28;20079;-71
2021/12/09 01:19:03;;;;;;;4.80;1.60;;;;;;;;;;4998017;28;20041;-71
2021/12/09 01:21:29;;;;;;;2.25;1.40;;;;;;;;;;5016694;28;20125;-72
2021/12/09 01:23:54;;;;;;;4.50;1.50;;;;;;;;;;5024943;28;20037;-72
2021/12/09 01:26:20;;;;;;;3.13;1.60;;;;;;;;;;5021332;28;20137;-72
2021/12/09 01:28:53;;;;;;;4.35;1.80;;;;;;;;;;5026890;28;20471;-71
2021/12/09 01:31:26;;;;;;;3.90;1.67;;;;;;;;;;5024359;28;20038;-71
2021/12/09 01:33:53;;;;;;;5.88;1.75;;;;;;;;;;5024011;28;20041;-71
2021/12/09 01:36:19;;;;;;;6.97;2.28;;;;;;;;;;5026145;28;20038;-71
2021/12/09 01:38:45;;;;;;;6.43;2.05;;;;;;;;;;5025744;28;20566;-72
2021/12/09 01:41:10;;;;;;;5.65;1.73;;;;;;;;;;5024346;28;20048;-71
2021/12/09 01:43:36;;;;;;;5.20;2.13;;;;;;;;;;5022974;28;20084;-71
2021/12/09 01:46:08;;;;;;;5.90;1.77;;;;;;;;;;4998934;28;20097;-72
2021/12/09 01:48:34;;;;;;;9.52;2.20;;;;;;;;;;5023180;28;20037;-71
2021/12/09 01:51:00;;;;;;;6.43;1.92;;;;;;;;;;5024371;28;20501;-72
2021/12/09 01:53:25;;;;;;;6.57;1.77;;;;;;;;;;5022977;28;20089;-72
2021/12/09 01:55:51;;;;;;;7.30;1.88;;;;;;;;;;5025775;28;20072;-71
2021/12/09 01:58:16;;;;;;;4.90;1.88;;;;;;;;;;5025680;28;20044;-71
2021/12/09 02:00:42;;;;;;;5.75;2.10;;;;;;;;;;5027102;28;20708;-71
2021/12/09 02:03:07;;;;;;;3.42;1.95;;;;;;;;;;5026761;28;20049;-71
2021/12/09 02:05:40;;;;;;;5.90;2.50;;;;;;;;;;5030570;28;20041;-71
2021/12/09 02:08:06;;;;;;;6.82;2.28;;;;;;;;;;5029292;28;20021;-71
2021/12/09 02:10:32;;;;;;;2.80;1.60;;;;;;;;;;5029856;28;20032;-72
2021/12/09 02:12:57;;;;;;;4.10;2.03;;;;;;;;;;5015948;28;20053;-72
2021/12/09 02:15:24;;;;;;;4.13;1.98;;;;;;;;;;5008174;28;20085;-71
2021/12/09 02:17:50;;;;;;;7.60;2.40;;;;;;;;;;5031044;28;20790;-72
2021/12/09 02:20:16;;;;;;;4.72;1.90;;;;;;;;;;5031742;28;20113;-71
2021/12/09 02:22:46;;;;;;;5.15;2.40;;;;;;;;;;5020950;28;20091;-71
2021/12/09 02:25:14;;;;;;;4.57;1.95;;;;;;;;;;5012597;28;20045;-71
2021/12/09 02:27:39;;;;;;;8.48;2.42;;;;;;;;;;5030284;28;20044;-71
2021/12/09 02:30:05;;;;;;;5.45;2.10;;;;;;;;;;5029122;28;20041;-71
2021/12/09 02:32:30;;;;;;;6.15;2.20;;;;;;;;;;5029018;28;20060;-71
2021/12/09 02:34:56;;;;;;;4.22;2.53;;;;;;;;;;5030518;28;20029;-71
2021/12/09 02:37:21;;;;;;;4.03;1.92;;;;;;;;;;5026824;28;20507;-71
2021/12/09 02:39:47;;;;;;;7.28;2.60;;;;;;;;;;5032476;28;20068;-71
2021/12/09 02:42:13;;;;;;;7.75;2.88;;;;;;;;;;5028243;28;20037;-72
2021/12/09 02:44:39;;;;;;;9.90;3.20;;;;;;;;;;5029952;28;20417;-71
2021/12/09 02:47:05;;;;;;;12.63;6.80;;;;;;;;;;5030278;28;20129;-71
2021/12/09 02:49:31;;;;;;;17.60;6.10;;;;;;;;;;5028764;28;20025;-71
2021/12/09 02:51:59;;;;;;;19.30;10.63;;;;;;;;;;5035654;28;20033;-71
2021/12/09 02:54:26;;;;;;;19.15;9.60;;;;;;;;;;5022917;28;20034;-72
2021/12/09 02:56:55;;;;;;;21.52;10.65;;;;;;;;;;5028753;28;20037;-71
2021/12/09 02:59:20;;;;;;;15.98;9.70;;;;;;;;;;5027535;28;20049;-71
2021/12/09 03:01:58;;;;;;;19.88;9.00;;;;;;;;;;5006926;28;20025;-71
2021/12/09 03:04:41;;;;;;;8.02;3.30;;;;;;;;;;5027446;28;20060;-72
2021/12/09 03:07:13;;;;;;;12.52;4.88;;;;;;;;;;5029811;28;20041;-71
2021/12/09 03:09:47;;;;;;;7.82;3.83;;;;;;;;;;5029587;28;20045;-71
2021/12/09 03:12:13;;;;;;;8.60;2.85;;;;;;;;;;5030652;28;20530;-71
2021/12/09 03:14:38;;;;;;;8.18;2.58;;;;;;;;;;5027186;28;20048;-71
2021/12/09 03:17:04;;;;;;;4.25;2.20;;;;;;;;;;5027924;28;20118;-71
2021/12/09 03:19:29;;;;;;;10.15;3.17;;;;;;;;;;5025410;28;20060;-71
2021/12/09 03:21:54;;;;;;;9.85;2.45;;;;;;;;;;5011968;28;20522;-71
2021/12/09 03:24:20;;;;;;;10.80;2.90;;;;;;;;;;5028304;28;20037;-71
2021/12/09 03:26:50;;;;;;;7.35;2.20;;;;;;;;;;5025945;28;20061;-72
2021/12/09 03:29:18;;;;;;;9.10;2.83;;;;;;;;;;5029382;28;20044;-72
2021/12/09 03:31:46;;;;;;;6.00;2.22;;;;;;;;;;5010297;28;20032;-71
2021/12/09 03:34:13;;;;;;;6.32;2.10;;;;;;;;;;5028660;28;20091;-71
2021/12/09 03:36:39;;;;;;;4.97;1.90;;;;;;;;;;5025829;28;20103;-72
2021/12/09 03:39:09;;;;;;;6.63;2.15;;;;;;;;;;5029151;28;20538;-71
2021/12/09 03:41:34;;;;;;;6.32;2.22;;;;;;;;;;5010854;28;20041;-71
2021/12/09 03:44:00;;;;;;;4.70;2.20;;;;;;;;;;5028937;28;20040;-71
2021/12/09 03:46:25;;;;;;;3.20;1.77;;;;;;;;;;5017907;28;20534;-71
2021/12/09 03:48:51;;;;;;;7.13;2.50;;;;;;;;;;5029828;28;20518;-71
2021/12/09 03:51:17;;;;;;;5.93;2.17;;;;;;;;;;5004993;28;20037;-71
2021/12/09 03:53:42;;;;;;;5.65;1.95;;;;;;;;;;5028044;28;20936;-71
2021/12/09 03:56:08;;;;;;;6.13;2.45;;;;;;;;;;5028623;28;20032;-71
2021/12/09 03:58:33;;;;;;;5.35;2.13;;;;;;;;;;5020172;28;20022;-71
2021/12/09 04:00:59;;;;;;;7.28;2.35;;;;;;;;;;5025932;28;20049;-72
2021/12/09 04:03:24;;;;;;;8.15;2.22;;;;;;;;;;5011427;28;20040;-71
2021/12/09 04:05:50;;;;;;;7.03;2.40;;;;;;;;;;5023533;28;20498;-71
2021/12/09 04:08:17;;;;;;;6.18;2.10;;;;;;;;;;5002016;28;20025;-71
2021/12/09 04:10:43;;;;;;;12.25;2.75;;;;;;;;;;5027888;28;20022;-71
2021/12/09 04:13:08;;;;;;;7.43;2.35;;;;;;;;;;5027194;28;20591;-72
2021/12/09 04:15:35;;;;;;;6.88;2.55;;;;;;;;;;5010484;28;20038;-71
2021/12/09 04:18:01;;;;;;;4.38;2.10;;;;;;;;;;5024528;28;20124;-71
2021/12/09 04:20:27;;;;;;;6.60;2.38;;;;;;;;;;5020337;28;20120;-71
2021/12/09 04:22:52;;;;;;;5.13;2.03;;;;;;;;;;5027881;28;20725;-71
2021/12/09 04:25:20;;;;;;;6.43;2.20;;;;;;;;;;5023187;28;20037;-71
2021/12/09 04:27:46;;;;;;;6.80;2.10;;;;;;;;;;5027056;28;20040;-72
2021/12/09 04:30:13;;;;;;;4.22;2.22;;;;;;;;;;5027083;28;20038;-71
2021/12/09 04:32:39;;;;;;;4.47;2.00;;;;;;;;;;5021940;28;20046;-71
2021/12/09 04:35:06;;;;;;;4.88;2.00;;;;;;;;;;5020814;28;20033;-71
2021/12/09 04:37:31;;;;;;;7.20;2.30;;;;;;;;;;5028061;28;20624;-71
2021/12/09 04:39:56;;;;;;;5.55;1.90;;;;;;;;;;5028450;28;20522;-71
2021/12/09 04:42:22;;;;;;;10.25;2.30;;;;;;;;;;5009841;28;20640;-71
2021/12/09 04:44:47;;;;;;;6.30;2.13;;;;;;;;;;5027711;28;20670;-71
2021/12/09 04:47:12;;;;;;;12.68;2.67;;;;;;;;;;5024653;28;20068;-71
2021/12/09 04:49:38;;;;;;;8.90;2.33;;;;;;;;;;5028461;28;20391;-72
2021/12/09 04:52:04;;;;;;;3.58;1.75;;;;;;;;;;5023592;28;20030;-72
2021/12/09 04:54:29;;;;;;;9.98;2.53;;;;;;;;;;5024505;28;20044;-71
2021/12/09 04:56:55;;;;;;;5.47;1.83;;;;;;;;;;5030579;28;20033;-71
2021/12/09 04:59:21;;;;;;;5.78;1.98;;;;;;;;;;5009357;28;20046;-72
2021/12/09 05:01:49;;;;;;;6.50;2.20;;;;;;;;;;5023424;28;20040;-72
2021/12/09 05:04:15;;;;;;;7.95;2.13;;;;;;;;;;5027022;28;20449;-71
2021/12/09 05:06:41;;;;;;;4.55;2.17;;;;;;;;;;5027371;28;20091;-72
2021/12/09 05:09:11;;;;;;;14.65;2.22;;;;;;;;;;5023562;28;20042;-72
2021/12/09 05:14:04;;;;;;;6.10;2.13;;;;;;;;;;5027487;28;20046;-72
2021/12/09 05:16:30;;;;;;;11.55;2.72;;;;;;;;;;5023420;28;20054;-72
2021/12/09 05:18:58;;;;;;;7.97;2.47;;;;;;;;;;5024872;28;20229;-71
2021/12/09 05:21:29;;;;;;;8.02;2.63;;;;;;;;;;5027617;28;20050;-72
2021/12/09 05:23:55;;;;;;;14.80;2.85;;;;;;;;;;5022329;28;20045;-72
2021/12/09 05:26:25;;;;;;;5.15;2.25;;;;;;;;;;5026350;28;20130;-71
2021/12/09 05:28:55;;;;;;;4.68;2.17;;;;;;;;;;5010107;28;20458;-72
2021/12/09 05:34:05;;;;;;;5.47;1.45;;;;;;;;;;5027138;28;20044;-72
2021/12/09 05:36:31;;;;;;;6.45;2.15;;;;;;;;;;4994609;28;20038;-72
2021/12/09 05:38:56;;;;;;;6.88;1.48;;;;;;;;;;5030220;28;20033;-72
2021/12/09 05:41:21;;;;;;;4.68;1.90;;;;;;;;;;5030047;28;20042;-72
2021/12/09 05:43:47;;;;;;;9.43;2.42;;;;;;;;;;5029818;28;20100;-71
2021/12/09 05:46:12;;;;;;;7.70;2.05;;;;;;;;;;5031612;28;20053;-71
2021/12/09 05:48:39;;;;;;;5.88;1.85;;;;;;;;;;5030129;28;20045;-71
2021/12/09 05:51:05;;;;;;;6.22;1.50;;;;;;;;;;5031620;28;20030;-71
2021/12/09 05:53:30;;;;;;;5.00;2.10;;;;;;;;;;5013369;28;20094;-71
2021/12/09 05:55:56;;;;;;;10.52;1.98;;;;;;;;;;5025273;28;20387;-72
2021/12/09 05:58:24;;;;;;;3.97;1.63;;;;;;;;;;5029164;28;20049;-71
2021/12/09 06:00:52;;;;;;;10.80;1.80;;;;;;;;;;5029779;28;20534;-72
2021/12/09 06:03:21;;;;;;;3.67;1.40;;;;;;;;;;5020835;28;20100;-71
2021/12/09 06:05:48;;;;;;;4.00;1.65;;;;;;;;;;5029787;28;20040;-71
2021/12/09 06:08:14;;;;;;;7.93;1.85;;;;;;;;;;5020273;28;20048;-71
2021/12/09 06:10:39;;;;;;;6.07;1.38;;;;;;;;;;5013781;28;20067;-71
2021/12/09 06:13:04;;;;;;;6.28;1.80;;;;;;;;;;5027532;28;20033;-71
2021/12/09 06:15:30;;;;;;;11.75;2.60;;;;;;;;;;5027976;28;20083;-72
2021/12/09 06:17:56;;;;;;;17.38;6.18;;;;;;;;;;5024749;28;20576;-71
2021/12/09 06:20:21;;;;;;;6.53;1.85;;;;;;;;;;5023605;28;20045;-72
2021/12/09 06:22:46;;;;;;;4.30;1.83;;;;;;;;;;5022959;28;20045;-72
2021/12/09 06:25:17;;;;;;;4.97;2.53;;;;;;;;;;5025219;28;20037;-71
2021/12/09 06:27:44;;;;;;;7.75;2.08;;;;;;;;;;5024858;28;20048;-72
2021/12/09 06:30:10;;;;;;;10.80;2.38;;;;;;;;;;5025629;28;20042;-71
2021/12/09 06:32:35;;;;;;;11.27;2.70;;;;;;;;;;5030390;28;20033;-71
2021/12/09 06:35:00;;;;;;;5.97;2.10;;;;;;;;;;5028632;28;20064;-71
2021/12/09 06:37:26;;;;;;;7.15;2.60;;;;;;;;;;5031032;28;20048;-71
2021/12/09 06:39:51;;;;;;;8.15;2.38;;;;;;;;;;5026594;28;20503;-71
2021/12/09 06:42:17;;;;;;;12.02;2.75;;;;;;;;;;5025229;28;20914;-71
2021/12/09 06:44:44;;;;;;;6.00;2.00;;;;;;;;;;5028893;28;20446;-72
2021/12/09 06:47:10;;;;;;;9.02;2.42;;;;;;;;;;5016762;28;20504;-71
2021/12/09 06:49:36;;;;;;;7.97;2.30;;;;;;;;;;5009921;28;20029;-71
2021/12/09 06:52:02;;;;;;;13.00;2.90;;;;;;;;;;5001137;28;20043;-71
2021/12/09 06:54:27;;;;;;;7.93;2.60;;;;;;;;;;4985507;28;20041;-71
2021/12/09 06:56:52;;;;;;;8.85;2.95;;;;;;;;;;5012906;28;20093;-71
2021/12/09 06:59:18;;;;;;;5.75;2.15;;;;;;;;;;4997633;28;20046;-71
2021/12/09 07:01:43;;;;;;;6.47;2.40;;;;;;;;;;5011246;28;20022;-71
2021/12/09 07:04:09;;;;;;;6.30;2.63;;;;;;;;;;5009636;28;20030;-71
2021/12/09 07:06:34;;;;;;;4.35;1.88;;;;;;;;;;4993264;28;20053;-71
2021/12/09 07:09:01;;;;;;;11.40;3.13;;;;;;;;;;5011269;28;20073;-71
2021/12/09 07:11:28;;;;;;;4.50;2.05;;;;;;;;;;4994321;28;20037;-71
2021/12/09 07:13:54;;;;;;;6.85;2.50;;;;;;;;;;5008355;28;20491;-71
2021/12/09 07:16:20;;;;;;;8.57;2.40;;;;;;;;;;5007639;28;20050;-71
2021/12/09 07:18:45;;;;;;;5.38;2.22;;;;;;;;;;5008252;28;20030;-71
2021/12/09 07:21:10;;;;;;;7.35;2.50;;;;;;;;;;5005827;28;20129;-71
2021/12/09 07:23:36;;;;;;;8.93;2.47;;;;;;;;;;4991365;28;20124;-71
2021/12/09 07:26:02;;;;;;;5.90;2.22;;;;;;;;;;5004402;28;20510;-71
2021/12/09 07:28:28;;;;;;;6.65;2.47;;;;;;;;;;4985870;28;20037;-71
2021/12/09 07:30:53;;;;;;;4.78;2.58;;;;;;;;;;4975949;28;20452;-71
2021/12/09 07:33:18;;;;;;;5.20;2.10;;;;;;;;;;4995965;28;20684;-71
2021/12/09 07:35:44;;;;;;;8.40;2.50;;;;;;;;;;4999722;28;20060;-71
2021/12/09 07:38:10;;;;;;;6.18;2.50;;;;;;;;;;5006467;28;20033;-71
2021/12/09 07:40:36;;;;;;;5.70;2.60;;;;;;;;;;5007352;28;20026;-71
2021/12/09 07:43:02;;;;;;;3.08;1.65;;;;;;;;;;5009174;28;20085;-71
2021/12/09 07:45:28;;;;;;;6.28;2.20;;;;;;;;;;4987113;28;20983;-70
2021/12/09 07:47:54;;;;;;;7.30;2.13;;;;;;;;;;5007930;28;20128;-71
2021/12/09 07:50:22;;;;;;;3.67;2.10;;;;;;;;;;5002800;28;20029;-71
2021/12/09 07:52:50;;;;;;;5.15;2.30;;;;;;;;;;5009884;28;20018;-71
2021/12/09 07:55:17;;;;;;;6.47;2.45;;;;;;;;;;5025535;28;20519;-71
2021/12/09 07:57:42;;;;;;;2.88;1.33;;;;;;;;;;5017000;28;20036;-71
2021/12/09 08:00:13;;;;;;;3.38;1.50;;;;;;;;;;4994652;28;20050;-71
2021/12/09 08:02:43;;;;;;;7.05;2.30;;;;;;;;;;4989737;28;21382;-71
2021/12/09 08:05:10;;;;;;;4.88;1.90;;;;;;;;;;4990626;28;20029;-71
2021/12/09 08:07:35;;;;;;;3.83;1.38;;;;;;;;;;4986845;28;20491;-71
2021/12/09 08:10:00;;;;;;;2.75;1.58;;;;;;;;;;5010888;28;20092;-71
2021/12/09 08:12:26;;;;;;;2.90;1.55;;;;;;;;;;5005113;28;20499;-71
2021/12/09 08:14:51;;;;;;;4.10;1.90;;;;;;;;;;5007810;28;20087;-71
2021/12/09 08:20:11;;;;;;;3.13;1.85;;;;;;;;;;5008840;28;22086;-71
2021/12/09 08:22:36;;;;;;;;;;;;;;;;;;4990464;28;20040;-71
2021/12/09 08:25:03;;;;;;;11.93;3.70;;;;;;;;;;5002765;28;19925;-71
2021/12/09 08:27:29;;;;;;;7.45;3.03;;;;;;;;;;5006495;28;20033;-71
2021/12/09 08:29:55;;;;;;;14.98;4.50;;;;;;;;;;5005321;28;20044;-71
2021/12/09 08:32:20;;;;;;;11.48;3.63;;;;;;;;;;5005771;28;20049;-71
2021/12/09 08:34:46;;;;;;;21.23;5.85;;;;;;;;;;5008445;28;20022;-71
2021/12/09 08:37:12;;;;;;;18.60;4.82;;;;;;;;;;5004014;28;20049;-71
2021/12/09 08:39:38;;;;;;;16.08;4.13;;;;;;;;;;5013988;28;20045;-71
2021/12/09 08:42:05;;;;;;;7.70;3.03;;;;;;;;;;5003360;28;20192;-71
2021/12/09 08:44:30;;;;;;;11.65;3.53;;;;;;;;;;4985504;28;20130;-71
2021/12/09 08:46:55;;;;;;;8.80;3.47;;;;;;;;;;5016676;28;20396;-71
2021/12/09 08:49:21;;;;;;;7.22;2.88;;;;;;;;;;5007492;28;20490;-71
2021/12/09 08:51:47;;;;;;;9.60;2.95;;;;;;;;;;5003904;28;20025;-71
2021/12/09 08:54:14;;;;;;;13.50;3.65;;;;;;;;;;5011943;28;20044;-71
2021/12/09 08:56:39;;;;;;;5.88;2.90;;;;;;;;;;5006354;28;20519;-71
2021/12/09 08:59:05;;;;;;;5.85;2.47;;;;;;;;;;5003912;28;20056;-71
2021/12/09 09:01:33;;;;;;;7.97;2.60;;;;;;;;;;5009959;28;20454;-71
2021/12/09 09:03:59;;;;;;;4.95;2.45;;;;;;;;;;5017940;28;20073;-69
2021/12/09 09:06:25;;;;;;;8.73;3.33;;;;;;;;;;5022531;28;20092;-69
2021/12/09 09:08:56;;;;;;;8.82;2.80;;;;;;;;;;5016227;28;20549;-68
2021/12/09 09:11:22;;;;;;;7.80;2.70;;;;;;;;;;5011766;28;20065;-69
2021/12/09 09:13:48;;;;;;;6.90;3.00;;;;;;;;;;5012766;28;20487;-69
2021/12/09 09:16:13;;;;;;;8.45;2.58;;;;;;;;;;5027980;28;20076;-69
2021/12/09 09:18:38;;;;;;;9.82;3.20;;;;;;;;;;5029487;28;20029;-69
2021/12/09 09:21:04;;;;;;;8.55;2.92;;;;;;;;;;5025372;28;20038;-70
2021/12/09 09:23:29;;;;;;;8.90;2.65;;;;;;;;;;5029361;28;20171;-69
2021/12/09 09:25:55;;;;;;;6.95;3.05;;;;;;;;;;5028062;28;20021;-69
2021/12/09 09:28:20;;;;;;;9.30;3.30;;;;;;;;;;5027504;28;20411;-69
2021/12/09 09:30:53;;;;;;;7.45;2.83;;;;;;;;;;5029259;28;20510;-69
2021/12/09 09:33:20;;;;;;;6.03;2.65;;;;;;;;;;5025377;28;20037;-69
2021/12/09 09:35:46;;;;;;;8.35;2.50;;;;;;;;;;5025134;28;20595;-69
2021/12/09 09:38:13;;;;;;;5.80;3.10;;;;;;;;;;5000660;28;20021;-68
2021/12/09 09:41:13;;;;;;;7.70;2.78;;;;;;;;;;5015481;28;20037;-69
2021/12/09 09:46:21;;;;;;;13.43;3.03;;;;;;;;;;5020226;28;20082;-69
2021/12/09 09:48:50;;;;;;;7.93;2.90;;;;;;;;;;5005121;28;20038;-69
2021/12/09 09:51:21;;;;;;;9.50;3.65;;;;;;;;;;5007219;28;20092;-70
2021/12/09 09:53:46;;;;;;;10.00;2.90;;;;;;;;;;5004510;28;20045;-72
2021/12/09 09:56:17;;;;;;;6.43;2.88;;;;;;;;;;5003094;28;20032;-71
2021/12/09 09:58:45;;;;;;;10.18;3.10;;;;;;;;;;4990423;28;20458;-71
2021/12/09 10:01:11;;;;;;;8.52;2.78;;;;;;;;;;4998030;28;20537;-70
2021/12/09 10:03:41;;;;;;;7.82;2.97;;;;;;;;;;4994258;28;20052;-70
2021/12/09 10:06:08;;;;;;;6.32;2.67;;;;;;;;;;4988734;28;21015;-70
2021/12/09 10:08:34;;;;;;;5.78;2.65;;;;;;;;;;4992669;28;20599;-69
2021/12/09 10:11:01;;;;;;;7.10;3.28;;;;;;;;;;4989899;28;20042;-70
2021/12/09 10:13:36;;;;;;;9.20;3.10;;;;;;;;;;4993790;28;20050;-71
2021/12/09 10:16:14;;;;;;;8.93;3.08;;;;;;;;;;4992910;28;20135;-73
2021/12/09 10:18:42;;;;;;;7.35;2.83;;;;;;;;;;5001158;28;20529;-69
2021/12/09 10:21:10;;;;;;;10.60;3.20;;;;;;;;;;4998768;28;20030;-69
2021/12/09 10:23:39;;;;;;;7.10;2.92;;;;;;;;;;4990974;28;20037;-68
2021/12/09 10:26:15;;;;;;;10.55;2.88;;;;;;;;;;4995716;28;20136;-68
2021/12/09 10:28:44;;;;;;;9.95;3.45;;;;;;;;;;5001526;28;20496;-70
2021/12/09 10:31:33;;;;;;;5.60;2.58;;;;;;;;;;5001419;28;20030;-70
2021/12/09 10:36:52;;;;;;;11.25;2.85;;;;;;;;;;5002222;28;20057;-69
2021/12/09 10:39:24;;;;;;;8.93;2.78;;;;;;;;;;5002862;28;20049;-68
2021/12/09 10:41:51;;;;;;;9.20;3.42;;;;;;;;;;5006750;28;20038;-70
2021/12/09 10:44:20;;;;;;;11.80;3.00;;;;;;;;;;5005090;28;20419;-70
2021/12/09 10:46:56;;;;;;;7.18;3.17;;;;;;;;;;5013916;28;20045;-70
2021/12/09 10:49:22;;;;;;;10.73;3.30;;;;;;;;;;5026952;28;20037;-70
2021/12/09 10:51:57;;;;;;;7.88;3.38;;;;;;;;;;5023986;28;20112;-69
2021/12/09 10:54:33;;;;;;;11.65;3.58;;;;;;;;;;5021772;28;20525;-69
2021/12/09 10:57:21;;;;;;;10.52;3.33;;;;;;;;;;5026657;28;20069;-69
2021/12/09 10:59:47;;;;;;;10.38;3.60;;;;;;;;;;5006231;28;20060;-68
2021/12/09 11:02:12;;;;;;;14.48;3.25;;;;;;;;;;5025365;28;20596;-70
2021/12/09 11:04:38;;;;;;;11.65;3.85;;;;;;;;;;5019279;28;20060;-69
2021/12/09 11:07:28;;;;;;;8.43;3.10;;;;;;;;;;4995736;28;20121;-68
2021/12/09 11:10:32;;;;;;;7.30;2.80;;;;;;;;;;4953892;28;21242;-68
2021/12/09 11:12:58;;;;;;;;;;;;;;;;;;4927236;28;20053;-67
2021/12/09 11:15:44;;;;;;;11.90;3.28;;;;;;;;;;4947350;28;19929;-68
2021/12/09 11:18:45;;;;;;;14.45;3.63;;;;;;;;;;4979733;28;20041;-69
2021/12/09 11:21:22;;;;;;;13.55;3.38;;;;;;;;;;4985734;28;20055;-68
2021/12/09 11:23:58;;;;;;;9.45;3.13;;;;;;;;;;4995597;28;20034;-68
2021/12/09 11:26:36;;;;;;;9.10;2.83;;;;;;;;;;4986433;28;20487;-67
2021/12/09 11:29:10;;;;;;;8.90;2.80;;;;;;;;;;4991422;28;20030;-67
2021/12/09 11:31:55;;;;;;;10.50;2.90;;;;;;;;;;5022168;28;20040;-69
2021/12/09 11:34:26;;;;;;;11.23;2.80;;;;;;;;;;5009709;28;20033;-68
2021/12/09 11:36:57;;;;;;;13.05;3.15;;;;;;;;;;5017859;28;20052;-69
2021/12/09 11:39:32;;;;;;;10.18;2.67;;;;;;;;;;5015282;28;20028;-69
2021/12/09 11:42:10;;;;;;;12.68;2.53;;;;;;;;;;5015798;28;20553;-70
2021/12/09 11:44:36;;;;;;;9.68;3.13;;;;;;;;;;4999445;28;20184;-69
2021/12/09 11:47:02;;;;;;;9.27;2.80;;;;;;;;;;5019257;28;20119;-70
2021/12/09 11:49:28;;;;;;;11.55;2.83;;;;;;;;;;4997864;28;20025;-72
2021/12/09 11:51:53;;;;;;;14.30;3.25;;;;;;;;;;4999341;28;20033;-71
2021/12/09 11:54:18;;;;;;;7.97;2.47;;;;;;;;;;4998531;28;20088;-72
2021/12/09 12:11:18;;;;;;;12.20;2.50;;;;;;;;;;4996871;28;20105;-70
2021/12/09 12:14:15;;;;;;;11.07;2.92;;;;;;;;;;4998981;28;20034;-70
2021/12/09 12:16:57;;;;;;;9.23;2.95;;;;;;;;;;4995044;28;20037;-70
2021/12/09 12:19:51;;;;;;;7.68;2.88;;;;;;;;;;4997081;28;20125;-68
2021/12/09 12:23:05;;;;;;;15.43;3.00;;;;;;;;;;5003504;28;20100;-70
2021/12/09 12:37:05;;;;;;;7.45;2.55;;;;;;;;;;4984989;28;20049;-68
2021/12/09 12:42:16;;;;;;;10.05;2.75;;;;;;;;;;4987788;28;20042;-69
2021/12/09 12:45:25;;;;;;;12.55;2.53;;;;;;;;;;4980852;28;20762;-69
2021/12/09 12:48:09;;;;;;;9.25;3.28;;;;;;;;;;4987719;28;20719;-68
2021/12/09 12:50:35;;;;;;;13.65;3.28;;;;;;;;;;4997854;28;20136;-69
2021/12/09 12:53:30;;;;;;;14.25;3.13;;;;;;;;;;4997002;28;20490;-67
2021/12/09 12:56:15;;;;;;;12.27;3.75;;;;;;;;;;5001042;28;20490;-67
2021/12/09 12:59:07;;;;;;;12.20;3.25;;;;;;;;;;4998398;28;20044;-66
2021/12/09 13:01:35;;;;;;;13.57;3.35;;;;;;;;;;5005174;28;20050;-68
2021/12/09 13:04:54;;;;;;;14.57;3.60;;;;;;;;;;5003189;28;20088;-68
2021/12/09 13:10:18;;;;;;;12.68;3.05;;;;;;;;;;5021973;28;20034;-68
2021/12/09 13:12:38;;;;;;;10.27;2.00;;;;;;;;;;5010660;28;20033;-67
2021/12/09 13:15:22;;;;;;;10.57;3.25;;;;;;;;;;5009950;28;20073;-66
2021/12/09 13:17:58;;;;;;;10.85;2.90;;;;;;;;;;5014386;28;20044;-67
2021/12/09 13:20:31;;;;;;;14.25;3.58;;;;;;;;;;5013029;28;20037;-67
2021/12/09 13:23:27;;;;;;;7.13;2.92;;;;;;;;;;5017602;28;20037;-67
2021/12/09 13:26:19;;;;;;;7.53;2.88;;;;;;;;;;5013643;28;20050;-68
2021/12/09 13:29:05;;;;;;;7.93;3.47;;;;;;;;;;5020983;28;20048;-68
2021/12/09 13:31:50;;;;;;;11.38;3.80;;;;;;;;;;5016944;28;20079;-68
2021/12/09 13:34:34;;;;;;;12.93;3.80;;;;;;;;;;5020724;28;20033;-68
2021/12/09 13:48:20;;;;;;;10.15;3.83;;;;;;;;;;5021775;28;20180;-70
2021/12/09 13:51:13;;;;;;;13.90;3.78;;;;;;;;;;5022235;28;20048;-68
2021/12/09 13:56:23;;;;;;;13.00;3.47;;;;;;;;;;5010410;28;20941;-70
2021/12/09 13:58:48;;;;;;;9.23;3.95;;;;;;;;;;4963475;28;20487;-69
2021/12/09 14:01:15;;;;;;;10.40;3.50;;;;;;;;;;4996995;28;20037;-69
2021/12/09 14:03:41;;;;;;;13.18;3.17;;;;;;;;;;5015307;28;20053;-69
2021/12/09 14:06:10;;;;;;;9.70;2.90;;;;;;;;;;5026840;28;20622;-68
2021/12/09 14:08:47;;;;;;;14.63;3.20;;;;;;;;;;5001645;28;20391;-69
2021/12/09 14:11:25;;;;;;;5.13;2.20;;;;;;;;;;5025329;28;20033;-68
2021/12/09 14:13:59;;;;;;;8.32;3.15;;;;;;;;;;5016631;28;20355;-66
2021/12/09 14:19:58;;;;;;;10.55;2.55;;;;;;;;;;5004146;28;20072;-68
2021/12/09 14:21:44;;;;;;;12.23;2.63;;;;;;;;;;5019611;28;20079;-67
2021/12/09 14:24:16;;;;;;;7.70;2.58;;;;;;;;;;5020999;28;20046;-69
2021/12/09 14:26:49;;;;;;;7.30;2.55;;;;;;;;;;5023869;28;20604;-67
2021/12/09 14:29:14;;;;;;;9.00;3.63;;;;;;;;;;5020643;28;20029;-68
2021/12/09 14:31:57;;;;;;;13.98;3.83;;;;;;;;;;5019480;28;20028;-67
2021/12/09 14:34:25;;;;;;;10.73;2.75;;;;;;;;;;5023240;28;20106;-68
2021/12/09 14:36:52;;;;;;;14.68;3.05;;;;;;;;;;5016512;28;20044;-68
2021/12/09 14:39:21;;;;;;;10.85;3.03;;;;;;;;;;5023416;28;20037;-71
2021/12/09 14:42:20;;;;;;;10.25;2.80;;;;;;;;;;4999217;28;20042;-67
2021/12/09 14:45:11;;;;;;;13.98;2.97;;;;;;;;;;5025324;28;20037;-67
2021/12/09 14:47:37;;;;;;;9.35;2.40;;;;;;;;;;5021343;28;20045;-67
2021/12/09 14:50:07;;;;;;;11.23;2.40;;;;;;;;;;5021854;28;20067;-69
2021/12/09 14:52:36;;;;;;;9.40;2.75;;;;;;;;;;5019774;28;20030;-68
2021/12/09 14:55:15;;;;;;;9.57;2.65;;;;;;;;;;5028707;28;20642;-69
2021/12/09 14:57:59;;;;;;;11.50;2.88;;;;;;;;;;5024529;28;20115;-69
2021/12/09 15:00:28;;;;;;;;;;;;;;;;;;5028217;28;20534;-68
2021/12/09 15:02:53;;;;;;;8.05;2.30;;;;;;;;;;5028091;28;20629;-68
2021/12/09 15:05:20;;;;;;;8.02;2.33;;;;;;;;;;5029288;28;20029;-71
2021/12/09 15:07:50;;;;;;;7.60;2.75;;;;;;;;;;5025143;28;20025;-69
2021/12/09 15:10:19;;;;;;;8.75;2.53;;;;;;;;;;5025894;28;20033;-69
2021/12/09 15:12:46;;;;;;;9.13;2.58;;;;;;;;;;5016667;28;21051;-68
2021/12/09 15:15:29;;;;;;;12.07;3.00;;;;;;;;;;5020043;28;20037;-69
2021/12/09 15:18:00;;;;;;;14.85;2.95;;;;;;;;;;5027240;28;20080;-68
2021/12/09 15:20:40;;;;;;;14.02;3.08;;;;;;;;;;5026195;28;20044;-69
2021/12/09 15:23:33;;;;;;;11.45;3.22;;;;;;;;;;5022997;28;20029;-71
2021/12/09 15:25:58;;;;;;;10.75;3.10;;;;;;;;;;5026971;28;20105;-70
2021/12/09 15:28:24;;;;;;;10.15;3.13;;;;;;;;;;5023646;28;20116;-70
2021/12/09 15:30:58;;;;;;;7.05;2.70;;;;;;;;;;5017757;28;20029;-71
2021/12/09 15:33:37;;;;;;;6.75;2.40;;;;;;;;;;5027097;28;20514;-70
2021/12/09 15:36:16;;;;;;;9.65;2.97;;;;;;;;;;5016110;28;20116;-71
2021/12/09 15:38:45;;;;;;;8.77;2.65;;;;;;;;;;5027106;28;20143;-70
2021/12/09 15:41:22;;;;;;;14.38;3.33;;;;;;;;;;5023399;28;20113;-70
2021/12/09 15:43:50;;;;;;;10.80;2.80;;;;;;;;;;5027786;28;20088;-71
2021/12/09 15:46:15;;;;;;;8.20;2.72;;;;;;;;;;5009663;28;20041;-70
2021/12/09 15:48:43;;;;;;;9.65;2.35;;;;;;;;;;5008090;28;20116;-71
2021/12/09 15:51:16;;;;;;;8.10;2.08;;;;;;;;;;4989036;28;20826;-70
2021/12/09 15:54:00;;;;;;;10.80;2.70;;;;;;;;;;4984715;28;20074;-75
2021/12/09 15:56:31;;;;;;;11.77;2.72;;;;;;;;;;4992676;28;20046;-71